Terminal Aerodrome Forecast
Issued by NWS

Home | Current Version | Previous Version | Text Only | Print | Product List | Glossary On
Versions: 1 2 3 4 5 6 7 8 9 10 11 12 13 14 15 16 17
000
FTUS45 KRIW 021700
TAFCPR
TAF
KCPR 021737Z 0218/0318 VRB04KT P6SM SCT050 BKN110
     FM022200 03007KT P6SM VCSH SCT030 OVC050
     FM030200 02014G20KT 1/2SM SN BLSN OVC008
     FM031500 03012KT 2SM -SN OVC012=

USA.gov is the U.S. government's official web portal to all federal, state and local government web resources and services.